This is the latest recevied weather packets stored in our database for station/object N4DBJ. If no packets are shown the sender has not sent any weather packets the latest 10 day(s).
| Time | Temp. | Humidity | Pressure | Rain* | Wind** | Luminosity | Snow |
|---|---|---|---|---|---|---|---|
| 1777678513 | 15.56° C | 49% | 1012.5 hPa | 0 mm | - | 67 W/m² | - |
| 1777678209 | 15° C | 45% | 1012.2 hPa | 0 mm | - | 68 W/m² | - |
| 1777677905 | 15.56° C | 46% | 1012.2 hPa | 0 mm | - | 62 W/m² | - |
| 1777677603 | 15.56° C | 46% | 1012 hPa | 0 mm | - | 71 W/m² | - |
| 1777677301 | 15.56° C | 44% | 1012.5 hPa | 0 mm | - | 74 W/m² | - |
| 1777676998 | 16.11° C | 41% | 1012.3 hPa | 0 mm | - | 85 W/m² | - |
| 1777676697 | 16.11° C | 43% | 1012.2 hPa | 0 mm | - | 101 W/m² | - |
| 1777676394 | 16.11° C | 43% | 1011.8 hPa | 0 mm | - | 86 W/m² | - |
| 1777676092 | 16.11° C | 44% | 1011.7 hPa | 0 mm | - | 104 W/m² | - |
| 1777675788 | 16.67° C | 43% | 1011.7 hPa | 0 mm | - | 86 W/m² | - |
| 1777675485 | 16.67° C | 41% | 1011.9 hPa | 0 mm | - | 109 W/m² | - |
| 1777675183 | 16.67° C | 40% | 1011.9 hPa | 0 mm | - | 218 W/m² | - |
| 1777674878 | 17.78° C | 39% | 1011.8 hPa | 0 mm | - | 130 W/m² | - |
| 1777674574 | 17.78° C | 38% | 1011.8 hPa | 0 mm | - | 168 W/m² | - |
| 1777674273 | 17.78° C | 39% | 1011.6 hPa | 0 mm | - | 275 W/m² | - |
| 1777673968 | 18.33° C | 40% | 1011.7 hPa | 0 mm | - | 304 W/m² | - |
| 1777673665 | 18.33° C | 38% | 1011.6 hPa | 0 mm | - | 281 W/m² | - |
| 1777673362 | 17.78° C | 41% | 1011.9 hPa | 0 mm | - | 350 W/m² | - |
| 1777673060 | 18.33° C | 37% | 1011.7 hPa | 0 mm | - | 220 W/m² | - |
| 1777672756 | 17.78° C | 41% | 1011.7 hPa | 0 mm | - | 309 W/m² | - |
| 1777672453 | 17.78° C | 41% | 1011.8 hPa | 0 mm | - | 302 W/m² | - |
| 1777672148 | 17.22° C | 42% | 1011.8 hPa | 0 mm | - | 286 W/m² | - |
| 1777671843 | 18.33° C | 38% | 1011.8 hPa | 0 mm | - | 165 W/m² | - |
| 1777671539 | 18.33° C | 41% | 1011.8 hPa | 0 mm | - | 293 W/m² | - |
| 1777671236 | 18.89° C | 37% | 1011.9 hPa | 0 mm | - | 194 W/m² | - |
* Rain latest hour (hover to see other rain measurements)
** Current wind speed in m/s (hover to see current wind gust speed)